Terminal Aerodrome Forecast
Issued by NWS

Home | Current Version | Previous Version | Text Only | Print | Product List | Glossary On
Versions: 1 2 3 4 5 6 7 8 9 10 11 12 13 14 15 16 17 18 19 20 21 22 23 24
000
FTAK31 PAJN 131400 AAB
TAFASI
TAF AMD
PASI 131429Z 1314/1412 30006KT 6SM -RA BR BKN008 OVC012
      TEMPO 1314/1316 1/2SM -RA FG OVC003
     FM131600 27005KT 6SM -RA BR BKN010 OVC015
     FM140900 30004KT P6SM VCSH SCT007 OVC025=

USA.gov is the U.S. government's official web portal to all federal, state and local government web resources and services.